Time;durP1;ratioP1;P1;durP2;ratioP2;P2;SDS_P1;SDS_P2;PMS_P1;PMS_P2;Temp;Humidity;BMP_temperature;BMP_pressure;BME280_temperature;BME280_humidity;BME280_pressure;Samples;Min_cycle;Max_cycle;Signal;HPM_P1;HPM_P2
2021/10/09 00:02:10;;;;;;;13.00;9.80;;;;;;;;;;5057863;28;20192;-87
2021/10/09 00:04:36;;;;;;;13.05;10.45;;;;;;;;;;5064035;28;20445;-88
2021/10/09 00:07:02;;;;;;;13.90;9.57;;;;;;;;;;5059976;28;20193;-87
2021/10/09 00:09:28;;;;;;;15.20;10.32;;;;;;;;;;5058217;28;20446;-87
2021/10/09 00:11:54;;;;;;;15.23;10.10;;;;;;;;;;5060903;28;20191;-87
2021/10/09 00:14:21;;;;;;;14.38;9.60;;;;;;;;;;5056650;28;20185;-87
2021/10/09 00:16:47;;;;;;;11.18;9.65;;;;;;;;;;5063258;28;20176;-88
2021/10/09 00:19:14;;;;;;;13.65;9.90;;;;;;;;;;5057672;28;20189;-87
2021/10/09 00:21:43;;;;;;;13.35;9.93;;;;;;;;;;5059879;28;20193;-88
2021/10/09 00:24:20;;;;;;;12.05;9.50;;;;;;;;;;5058956;28;20177;-87
2021/10/09 00:26:47;;;;;;;13.48;9.55;;;;;;;;;;5061761;28;20209;-87
2021/10/09 00:29:13;;;;;;;11.18;9.15;;;;;;;;;;5073294;28;20201;-87
2021/10/09 00:31:39;;;;;;;12.85;9.70;;;;;;;;;;5063530;28;20185;-87
2021/10/09 00:34:05;;;;;;;12.85;9.35;;;;;;;;;;5059880;28;20181;-86
2021/10/09 00:36:31;;;;;;;10.85;8.60;;;;;;;;;;5056731;28;20184;-87
2021/10/09 00:38:57;;;;;;;14.43;8.90;;;;;;;;;;5058328;28;20219;-87
2021/10/09 00:41:24;;;;;;;10.52;9.45;;;;;;;;;;5065385;28;20186;-87
2021/10/09 00:43:50;;;;;;;11.98;9.50;;;;;;;;;;5055524;28;20240;-87
2021/10/09 00:46:16;;;;;;;18.52;9.32;;;;;;;;;;5061399;28;20415;-87
2021/10/09 00:48:43;;;;;;;12.32;9.80;;;;;;;;;;5061953;28;20251;-87
2021/10/09 00:51:09;;;;;;;16.20;9.60;;;;;;;;;;5059183;28;20182;-86
2021/10/09 00:53:36;;;;;;;13.80;9.03;;;;;;;;;;5073520;28;20221;-87
2021/10/09 00:56:03;;;;;;;13.05;9.77;;;;;;;;;;5055992;28;20412;-87
2021/10/09 00:58:29;;;;;;;13.38;9.23;;;;;;;;;;5061053;28;20185;-87
2021/10/09 01:00:56;;;;;;;16.02;9.20;;;;;;;;;;5059101;28;20189;-87
2021/10/09 01:03:22;;;;;;;13.27;8.32;;;;;;;;;;5056463;28;20189;-87
2021/10/09 01:05:48;;;;;;;11.35;8.75;;;;;;;;;;5059227;28;20330;-87
2021/10/09 01:08:15;;;;;;;11.23;8.40;;;;;;;;;;5057094;28;20237;-87
2021/10/09 01:10:41;;;;;;;13.35;8.23;;;;;;;;;;5075557;28;20189;-87
2021/10/09 01:13:07;;;;;;;10.45;8.95;;;;;;;;;;5053759;28;20200;-87
2021/10/09 01:15:35;;;;;;;11.98;8.75;;;;;;;;;;5053648;28;20177;-87
2021/10/09 01:18:08;;;;;;;11.50;8.90;;;;;;;;;;5058772;28;20189;-87
2021/10/09 01:21:04;;;;;;;10.43;8.52;;;;;;;;;;5059017;28;20248;-87
2021/10/09 01:23:35;;;;;;;10.90;8.70;;;;;;;;;;5041342;28;20197;-88
2021/10/09 01:26:01;;;;;;;11.35;8.43;;;;;;;;;;5059425;28;20173;-87
2021/10/09 01:28:27;;;;;;;13.15;9.32;;;;;;;;;;5060474;28;20325;-87
2021/10/09 01:30:54;;;;;;;13.75;9.20;;;;;;;;;;5053281;28;20257;-87
2021/10/09 01:33:20;;;;;;;11.13;9.05;;;;;;;;;;5055762;28;20189;-87
2021/10/09 01:35:50;;;;;;;11.38;8.30;;;;;;;;;;5057613;28;20181;-87
2021/10/09 01:38:17;;;;;;;14.13;10.35;;;;;;;;;;5069492;28;20196;-87
2021/10/09 01:40:43;;;;;;;12.88;9.05;;;;;;;;;;5059199;28;20250;-87
2021/10/09 01:43:13;;;;;;;12.50;9.15;;;;;;;;;;5053128;28;20221;-87
2021/10/09 01:45:41;;;;;;;12.90;8.98;;;;;;;;;;5056031;28;20190;-87
2021/10/09 01:48:07;;;;;;;12.38;9.25;;;;;;;;;;5058271;28;20528;-87
2021/10/09 01:50:33;;;;;;;13.30;9.50;;;;;;;;;;5057399;28;20425;-86
2021/10/09 01:53:00;;;;;;;11.13;8.18;;;;;;;;;;5056458;28;20631;-87
2021/10/09 01:55:26;;;;;;;12.48;9.27;;;;;;;;;;5056715;28;20180;-87
2021/10/09 01:57:52;;;;;;;12.50;8.43;;;;;;;;;;5056867;28;20205;-86
2021/10/09 02:00:18;;;;;;;12.25;8.63;;;;;;;;;;5055433;28;20240;-87
2021/10/09 02:02:44;;;;;;;11.73;8.23;;;;;;;;;;5057459;28;20181;-86
2021/10/09 02:05:10;;;;;;;12.77;9.07;;;;;;;;;;5055814;28;20187;-88
2021/10/09 02:07:36;;;;;;;13.57;9.35;;;;;;;;;;5061307;28;20221;-86
2021/10/09 02:10:04;;;;;;;10.68;8.57;;;;;;;;;;5060146;28;20196;-86
2021/10/09 02:12:31;;;;;;;13.57;8.35;;;;;;;;;;5052726;28;20277;-87
2021/10/09 02:25:37;;;;;;;13.68;9.60;;;;;;;;;;5060419;28;20204;-87
2021/10/09 02:28:03;;;;;;;11.55;8.88;;;;;;;;;;5057786;28;20219;-87
2021/10/09 02:30:29;;;;;;;12.25;10.10;;;;;;;;;;5054291;28;20693;-87
2021/10/09 02:32:55;;;;;;;10.60;8.57;;;;;;;;;;5057500;28;20185;-87
2021/10/09 02:35:21;;;;;;;10.88;8.40;;;;;;;;;;5070822;28;20249;-87
2021/10/09 02:37:47;;;;;;;10.82;8.50;;;;;;;;;;5055195;28;20184;-86
2021/10/09 02:40:14;;;;;;;14.13;9.33;;;;;;;;;;5060392;28;20169;-87
2021/10/09 02:42:40;;;;;;;13.27;9.52;;;;;;;;;;5057579;28;20442;-88
2021/10/09 02:45:06;;;;;;;12.48;8.30;;;;;;;;;;5068427;28;20248;-87
2021/10/09 02:47:32;;;;;;;11.75;9.13;;;;;;;;;;5061023;28;20280;-88
2021/10/09 02:49:58;;;;;;;11.27;8.18;;;;;;;;;;5058688;28;20180;-87
2021/10/09 02:52:24;;;;;;;11.60;8.70;;;;;;;;;;5059195;28;20311;-86
2021/10/09 02:54:50;;;;;;;16.13;9.60;;;;;;;;;;5062281;28;20933;-87
2021/10/09 02:57:16;;;;;;;12.68;8.45;;;;;;;;;;5057883;28;20198;-86
2021/10/09 02:59:42;;;;;;;16.53;8.57;;;;;;;;;;5060698;28;20189;-86
2021/10/09 03:02:08;;;;;;;11.53;8.20;;;;;;;;;;5057823;28;20961;-87
2021/10/09 03:04:34;;;;;;;14.07;8.70;;;;;;;;;;5064292;28;20434;-87
2021/10/09 03:07:00;;;;;;;12.75;9.05;;;;;;;;;;5061291;28;20432;-87
2021/10/09 03:09:26;;;;;;;12.10;9.00;;;;;;;;;;5057612;28;20201;-87
2021/10/09 03:11:52;;;;;;;13.10;8.67;;;;;;;;;;5060953;28;20185;-87
2021/10/09 03:14:18;;;;;;;14.93;9.90;;;;;;;;;;5072418;28;20471;-85
2021/10/09 03:16:45;;;;;;;13.18;9.75;;;;;;;;;;5059588;28;20439;-86
2021/10/09 03:19:11;;;;;;;10.15;8.55;;;;;;;;;;5075473;28;20169;-87
2021/10/09 03:21:37;;;;;;;10.03;8.30;;;;;;;;;;5057988;28;20193;-86
2021/10/09 03:24:03;;;;;;;13.37;8.80;;;;;;;;;;5055190;28;20462;-87
2021/10/09 03:26:29;;;;;;;15.23;9.25;;;;;;;;;;5061310;28;20447;-86
2021/10/09 03:28:55;;;;;;;11.93;8.40;;;;;;;;;;5060291;28;20205;-86
2021/10/09 03:31:21;;;;;;;15.10;10.25;;;;;;;;;;5059530;28;20490;-87
2021/10/09 03:33:47;;;;;;;12.47;9.57;;;;;;;;;;5058535;28;20177;-86
2021/10/09 03:36:13;;;;;;;13.83;9.43;;;;;;;;;;5057651;28;20432;-88
2021/10/09 03:38:40;;;;;;;12.83;9.47;;;;;;;;;;5060641;28;20514;-87
2021/10/09 03:41:11;;;;;;;12.80;10.05;;;;;;;;;;5056391;28;20448;-87
2021/10/09 03:43:38;;;;;;;16.27;9.30;;;;;;;;;;5063883;28;20237;-87
2021/10/09 03:46:16;;;;;;;17.67;10.02;;;;;;;;;;5060991;28;20194;-87
2021/10/09 03:54:05;;;;;;;14.77;9.40;;;;;;;;;;5051033;28;20250;-88
2021/10/09 03:56:31;;;;;;;11.77;9.10;;;;;;;;;;5074331;28;20264;-87
2021/10/09 03:58:57;;;;;;;14.90;9.80;;;;;;;;;;5061030;28;20177;-87
2021/10/09 04:01:23;;;;;;;11.82;9.18;;;;;;;;;;5059399;28;20843;-87
2021/10/09 04:03:49;;;;;;;12.30;9.32;;;;;;;;;;5060341;28;20626;-87
2021/10/09 04:06:15;;;;;;;15.18;9.90;;;;;;;;;;5056655;28;20185;-87
2021/10/09 04:08:41;;;;;;;13.13;9.48;;;;;;;;;;5071043;28;20232;-87
2021/10/09 04:11:07;;;;;;;13.37;9.10;;;;;;;;;;5055334;28;20173;-87
2021/10/09 04:13:33;;;;;;;12.13;9.25;;;;;;;;;;5062829;28;20418;-86
2021/10/09 04:15:59;;;;;;;17.08;11.35;;;;;;;;;;5058498;28;20181;-87
2021/10/09 04:18:25;;;;;;;12.25;9.30;;;;;;;;;;5056897;28;20186;-87
2021/10/09 04:20:51;;;;;;;13.70;9.70;;;;;;;;;;5061269;28;20211;-87
2021/10/09 04:23:17;;;;;;;12.60;9.17;;;;;;;;;;5064606;28;20190;-87
2021/10/09 04:25:43;;;;;;;15.73;10.27;;;;;;;;;;5061950;28;20423;-87
2021/10/09 04:28:08;;;;;;;15.85;10.43;;;;;;;;;;5059891;28;20499;-87
2021/10/09 04:30:35;;;;;;;13.07;9.33;;;;;;;;;;5060244;28;20182;-86
2021/10/09 04:33:01;;;;;;;13.30;9.13;;;;;;;;;;5062449;28;20443;-87
2021/10/09 04:35:27;;;;;;;10.10;8.82;;;;;;;;;;5071023;28;20182;-87
2021/10/09 04:37:53;;;;;;;15.43;10.90;;;;;;;;;;5060279;28;20184;-87
2021/10/09 04:40:19;;;;;;;12.02;8.75;;;;;;;;;;5057319;28;20177;-87
2021/10/09 04:42:45;;;;;;;13.68;9.52;;;;;;;;;;5059194;28;20257;-87
2021/10/09 04:45:11;;;;;;;14.32;9.52;;;;;;;;;;5056595;28;20204;-87
2021/10/09 04:47:37;;;;;;;15.35;10.18;;;;;;;;;;5074485;28;20223;-87
2021/10/09 04:50:04;;;;;;;13.05;9.60;;;;;;;;;;5055920;28;20240;-86
2021/10/09 04:52:30;;;;;;;12.10;9.15;;;;;;;;;;5061625;28;20173;-87
2021/10/09 04:54:56;;;;;;;13.80;11.10;;;;;;;;;;5059732;28;20180;-87
2021/10/09 04:57:22;;;;;;;14.30;9.77;;;;;;;;;;5059181;28;20173;-87
2021/10/09 04:59:48;;;;;;;22.50;10.15;;;;;;;;;;5058957;28;20493;-87
2021/10/09 05:02:14;;;;;;;12.35;9.30;;;;;;;;;;5071851;28;20207;-87
2021/10/09 05:04:40;;;;;;;14.90;9.43;;;;;;;;;;5063435;28;20181;-87
2021/10/09 05:07:06;;;;;;;13.50;10.00;;;;;;;;;;5053460;28;20204;-86
2021/10/09 05:09:32;;;;;;;11.40;8.90;;;;;;;;;;5055549;28;20492;-86
2021/10/09 05:11:57;;;;;;;14.45;9.98;;;;;;;;;;5060347;28;20435;-86
2021/10/09 05:14:23;;;;;;;13.93;10.68;;;;;;;;;;5056759;28;20180;-86
2021/10/09 05:16:49;;;;;;;13.93;9.80;;;;;;;;;;5056671;28;20179;-86
2021/10/09 05:19:15;;;;;;;15.27;10.07;;;;;;;;;;5061151;28;20211;-87
2021/10/09 05:21:41;;;;;;;15.15;10.15;;;;;;;;;;5055720;28;20432;-86
2021/10/09 05:24:08;;;;;;;13.38;10.30;;;;;;;;;;5053087;28;20200;-87
2021/10/09 05:26:37;;;;;;;12.85;9.68;;;;;;;;;;5060721;28;20177;-87
2021/10/09 05:29:03;;;;;;;15.75;11.15;;;;;;;;;;5055459;28;20222;-86
2021/10/09 05:31:34;;;;;;;14.98;10.35;;;;;;;;;;5059268;28;20661;-86
2021/10/09 05:34:00;;;;;;;13.52;9.68;;;;;;;;;;5059048;28;20177;-87
2021/10/09 05:36:26;;;;;;;18.63;10.53;;;;;;;;;;5054214;28;20178;-86
2021/10/09 05:38:52;;;;;;;15.95;9.70;;;;;;;;;;5055477;28;20475;-86
2021/10/09 05:41:19;;;;;;;19.17;11.93;;;;;;;;;;5059567;28;20649;-86
2021/10/09 05:43:46;;;;;;;17.85;10.85;;;;;;;;;;5056347;28;20243;-86
2021/10/09 05:46:12;;;;;;;16.40;11.35;;;;;;;;;;5056569;28;20269;-86
2021/10/09 05:48:40;;;;;;;14.25;10.25;;;;;;;;;;5054298;28;20214;-85
2021/10/09 06:31:33;;;;;;;15.82;12.07;;;;;;;;;;5062390;28;20223;-85
2021/10/09 06:45:00;;;;;;;19.55;12.35;;;;;;;;;;5022089;28;20309;-86
2021/10/09 07:00:55;;;;;;;19.27;13.30;;;;;;;;;;5020716;28;20205;-87
2021/10/09 07:03:21;;;;;;;21.55;13.63;;;;;;;;;;5004115;28;20850;-88
2021/10/09 07:05:48;;;;;;;22.88;14.38;;;;;;;;;;5022767;28;20194;-87
2021/10/09 07:08:14;;;;;;;22.80;13.40;;;;;;;;;;4999347;28;20210;-87
2021/10/09 07:10:42;;;;;;;20.25;13.20;;;;;;;;;;5007951;28;20343;-87
2021/10/09 07:13:09;;;;;;;22.60;13.88;;;;;;;;;;5019372;28;20191;-87
2021/10/09 07:15:38;;;;;;;18.88;12.95;;;;;;;;;;5001567;28;20556;-87
2021/10/09 07:18:05;;;;;;;22.83;14.30;;;;;;;;;;5009462;28;20194;-86
2021/10/09 07:20:31;;;;;;;22.98;14.50;;;;;;;;;;5059505;28;20192;-86
2021/10/09 07:22:57;;;;;;;26.00;14.20;;;;;;;;;;5060039;28;20230;-87
2021/10/09 07:25:23;;;;;;;29.45;16.73;;;;;;;;;;5069383;28;20177;-86
2021/10/09 07:27:49;;;;;;;20.40;13.82;;;;;;;;;;5062677;28;20217;-86
2021/10/09 07:30:16;;;;;;;28.38;16.30;;;;;;;;;;5062319;28;20193;-85
2021/10/09 07:32:44;;;;;;;27.90;17.35;;;;;;;;;;5060272;28;20702;-86
2021/10/09 07:35:10;;;;;;;36.05;18.60;;;;;;;;;;5059835;28;20178;-86
2021/10/09 07:37:36;;;;;;;36.10;19.35;;;;;;;;;;5063062;28;20245;-86
2021/10/09 07:40:03;;;;;;;30.92;18.73;;;;;;;;;;5056409;28;20401;-86
2021/10/09 07:42:29;;;;;;;28.02;18.52;;;;;;;;;;5060303;28;20188;-84
2021/10/09 07:44:55;;;;;;;32.43;19.70;;;;;;;;;;5063310;28;20219;-86
2021/10/09 07:47:21;;;;;;;31.00;18.98;;;;;;;;;;5061355;28;21229;-86
2021/10/09 07:49:47;;;;;;;39.53;20.38;;;;;;;;;;5051174;28;20623;-88
2021/10/09 07:52:14;;;;;;;32.55;19.40;;;;;;;;;;5058966;28;20184;-88
2021/10/09 07:54:40;;;;;;;33.17;19.77;;;;;;;;;;5056627;28;20182;-86
2021/10/09 07:57:06;;;;;;;34.72;21.30;;;;;;;;;;5063296;28;20181;-87
2021/10/09 07:59:32;;;;;;;28.20;17.73;;;;;;;;;;5062047;28;20177;-87
2021/10/09 08:01:59;;;;;;;27.85;18.65;;;;;;;;;;5056598;28;20280;-85
2021/10/09 08:04:25;;;;;;;32.78;20.30;;;;;;;;;;5060663;28;20184;-87
2021/10/09 08:06:51;;;;;;;28.67;18.92;;;;;;;;;;5060606;28;20177;-86
2021/10/09 08:09:17;;;;;;;31.17;20.33;;;;;;;;;;5055840;28;20197;-88
2021/10/09 08:11:43;;;;;;;33.30;21.33;;;;;;;;;;5060725;28;20427;-88
2021/10/09 08:14:09;;;;;;;30.98;20.02;;;;;;;;;;5055471;28;20753;-89
2021/10/09 08:16:35;;;;;;;30.97;18.13;;;;;;;;;;5056381;28;20173;-88
2021/10/09 08:19:02;;;;;;;30.50;19.50;;;;;;;;;;5054074;28;20447;-88
2021/10/09 08:21:29;;;;;;;26.88;18.23;;;;;;;;;;5061596;28;20450;-88
2021/10/09 08:26:49;;;;;;;31.83;18.90;;;;;;;;;;5051546;28;20196;-89
2021/10/09 08:40:18;;;;;;;26.05;17.02;;;;;;;;;;5027191;28;20175;-90
2021/10/09 08:42:44;;;;;;;27.95;18.00;;;;;;;;;;5031502;28;20215;-89
2021/10/09 08:45:13;;;;;;;27.08;19.30;;;;;;;;;;5004229;28;20261;-90
2021/10/09 08:47:39;;;;;;;24.75;17.65;;;;;;;;;;5031162;28;20214;-88
2021/10/09 08:50:06;;;;;;;32.95;19.52;;;;;;;;;;5020542;28;20206;-89
2021/10/09 08:52:33;;;;;;;29.88;18.52;;;;;;;;;;5022082;28;20628;-89
2021/10/09 08:55:17;;;;;;;26.70;18.60;;;;;;;;;;5020022;28;20241;-89
2021/10/09 08:57:43;;;;;;;23.35;16.75;;;;;;;;;;5019304;28;20582;-89
2021/10/09 09:00:11;;;;;;;25.35;17.95;;;;;;;;;;5018765;28;20601;-89
2021/10/09 09:02:42;;;;;;;29.83;18.70;;;;;;;;;;5018948;28;20193;-87
2021/10/09 09:33:09;;;;;;;28.92;19.20;;;;;;;;;;5060441;28;20577;-89
2021/10/09 09:35:46;;;;;;;24.15;17.63;;;;;;;;;;5073731;28;20186;-79
2021/10/09 09:41:00;;;;;;;24.23;18.77;;;;;;;;;;5061081;28;20188;-88
2021/10/09 09:43:37;;;;;;;23.88;17.42;;;;;;;;;;5067723;28;20217;-89
2021/10/09 09:46:10;;;;;;;23.77;18.25;;;;;;;;;;5071964;28;20777;-89
2021/10/09 09:48:36;;;;;;;20.38;16.20;;;;;;;;;;5059143;28;20227;-85
2021/10/09 09:51:02;;;;;;;23.67;17.75;;;;;;;;;;5057094;28;20200;-83
2021/10/09 09:53:29;;;;;;;22.95;17.42;;;;;;;;;;5052204;28;20192;-87
2021/10/09 09:55:55;;;;;;;22.10;16.52;;;;;;;;;;5056951;28;20173;-86
2021/10/09 09:58:23;;;;;;;22.08;15.70;;;;;;;;;;5061325;28;20669;-90
2021/10/09 10:00:49;;;;;;;22.35;15.80;;;;;;;;;;5062562;28;20184;-90
2021/10/09 10:03:16;;;;;;;22.90;15.57;;;;;;;;;;5061875;28;20248;-90
2021/10/09 10:05:42;;;;;;;22.17;15.93;;;;;;;;;;5073887;28;20495;-89
2021/10/09 10:08:11;;;;;;;19.60;16.05;;;;;;;;;;5060113;28;20665;-91
2021/10/09 10:10:37;;;;;;;18.02;15.02;;;;;;;;;;5065638;28;20252;-89
2021/10/09 10:13:03;;;;;;;21.97;16.67;;;;;;;;;;5058782;28;20181;-90
2021/10/09 10:15:31;;;;;;;20.42;16.75;;;;;;;;;;5071494;28;20485;-88
2021/10/09 10:17:57;;;;;;;21.42;17.38;;;;;;;;;;5062968;28;20195;-90
2021/10/09 10:20:25;;;;;;;25.85;15.80;;;;;;;;;;5075150;28;20243;-89
2021/10/09 10:22:51;;;;;;;21.95;16.27;;;;;;;;;;5063388;28;20191;-89
2021/10/09 10:25:33;;;;;;;19.33;15.32;;;;;;;;;;5063876;28;20186;-89
2021/10/09 10:28:19;;;;;;;23.70;16.10;;;;;;;;;;5061375;28;20215;-90
2021/10/09 10:30:46;;;;;;;19.88;14.98;;;;;;;;;;5058843;28;20182;-86
2021/10/09 10:33:17;;;;;;;18.48;14.52;;;;;;;;;;5060372;28;20229;-89
2021/10/09 10:35:43;;;;;;;18.42;16.27;;;;;;;;;;5073604;28;20248;-88
2021/10/09 10:38:12;;;;;;;18.50;14.00;;;;;;;;;;5057534;28;20192;-88
2021/10/09 10:40:54;;;;;;;16.65;14.15;;;;;;;;;;5064634;28;20427;-90
2021/10/09 10:49:05;;;;;;;18.30;14.40;;;;;;;;;;5057270;28;20205;-89
2021/10/09 10:59:59;;;;;;;14.43;12.70;;;;;;;;;;5059908;28;20189;-88
2021/10/09 11:02:27;;;;;;;14.57;11.88;;;;;;;;;;5057112;28;20188;-87
2021/10/09 11:04:55;;;;;;;13.77;11.98;;;;;;;;;;5058184;28;20187;-88
2021/10/09 11:07:24;;;;;;;13.82;11.02;;;;;;;;;;5060845;28;20186;-90
2021/10/09 11:09:51;;;;;;;12.45;9.88;;;;;;;;;;5059229;28;20188;-88
2021/10/09 11:12:31;;;;;;;12.05;9.77;;;;;;;;;;5058132;28;20575;-88
2021/10/09 11:15:19;;;;;;;10.73;9.38;;;;;;;;;;5059482;28;20173;-89
2021/10/09 11:18:06;;;;;;;11.88;9.70;;;;;;;;;;5058645;28;20197;-88
2021/10/09 11:20:37;;;;;;;10.85;9.60;;;;;;;;;;5061788;28;20390;-86
2021/10/09 11:23:05;;;;;;;12.60;9.95;;;;;;;;;;5068797;28;20181;-88
2021/10/09 11:25:32;;;;;;;12.38;9.48;;;;;;;;;;5063042;28;20230;-89
2021/10/09 11:28:00;;;;;;;11.82;10.63;;;;;;;;;;5063158;28;20230;-88
2021/10/09 11:30:26;;;;;;;11.95;9.25;;;;;;;;;;5058118;28;20272;-90
2021/10/09 11:32:53;;;;;;;9.70;7.40;;;;;;;;;;5074468;28;20185;-89
2021/10/09 11:35:28;;;;;;;8.43;7.47;;;;;;;;;;5062167;28;20189;-89
2021/10/09 11:37:54;;;;;;;9.75;8.75;;;;;;;;;;5063036;28;20222;-89
2021/10/09 11:40:36;;;;;;;12.43;9.15;;;;;;;;;;5058824;28;20181;-89
2021/10/09 11:45:43;;;;;;;11.68;8.20;;;;;;;;;;5057908;28;20645;-90
2021/10/09 11:53:49;;;;;;;8.60;7.70;;;;;;;;;;5059242;28;20201;-88
2021/10/09 11:56:15;;;;;;;13.23;8.32;;;;;;;;;;5053400;28;20173;-89
2021/10/09 11:58:49;;;;;;;9.48;7.50;;;;;;;;;;5060453;28;20181;-88
2021/10/09 12:01:24;;;;;;;8.15;7.35;;;;;;;;;;5072370;28;20601;-86
2021/10/09 12:03:50;;;;;;;7.85;6.80;;;;;;;;;;5055316;28;20195;-91
2021/10/09 12:06:16;;;;;;;9.70;7.47;;;;;;;;;;5060276;28;20190;-87
2021/10/09 12:08:48;;;;;;;7.63;6.53;;;;;;;;;;5059143;28;20514;-86
2021/10/09 12:11:23;;;;;;;7.50;6.70;;;;;;;;;;5071028;28;20204;-87
2021/10/09 12:13:49;;;;;;;7.18;6.57;;;;;;;;;;5058329;28;20188;-87
2021/10/09 12:16:16;;;;;;;6.33;5.73;;;;;;;;;;5059734;28;20219;-88
2021/10/09 12:18:53;;;;;;;10.45;7.22;;;;;;;;;;5053521;28;20516;-90
2021/10/09 12:21:19;;;;;;;7.95;6.65;;;;;;;;;;5056546;28;20178;-88
2021/10/09 12:23:45;;;;;;;8.25;7.38;;;;;;;;;;5052377;28;20181;-89
2021/10/09 12:26:15;;;;;;;12.75;7.25;;;;;;;;;;5061179;28;20248;-86
2021/10/09 12:29:00;;;;;;;8.18;7.38;;;;;;;;;;5058606;28;20204;-86
2021/10/09 12:31:27;;;;;;;9.30;7.20;;;;;;;;;;5055974;28;20177;-88
2021/10/09 12:33:53;;;;;;;8.23;7.43;;;;;;;;;;5059594;28;20314;-90
2021/10/09 12:36:40;;;;;;;9.03;7.47;;;;;;;;;;5056223;28;20183;-88
2021/10/09 12:39:25;;;;;;;8.55;7.65;;;;;;;;;;5057300;28;20445;-90
2021/10/09 12:41:52;;;;;;;9.63;7.80;;;;;;;;;;5072980;28;20193;-85
2021/10/09 12:44:18;;;;;;;12.55;8.27;;;;;;;;;;5057624;28;20311;-88
2021/10/09 12:46:44;;;;;;;9.82;8.45;;;;;;;;;;5053420;28;20178;-88
2021/10/09 12:49:10;;;;;;;9.88;8.45;;;;;;;;;;5055453;28;20436;-89
2021/10/09 12:51:36;;;;;;;8.48;7.20;;;;;;;;;;5056670;28;20257;-88
2021/10/09 12:54:08;;;;;;;8.10;7.00;;;;;;;;;;5058770;28;20194;-89
2021/10/09 12:56:35;;;;;;;6.75;6.10;;;;;;;;;;5060305;28;20438;-85
2021/10/09 12:59:01;;;;;;;10.35;7.78;;;;;;;;;;5054213;28;20205;-86
2021/10/09 13:01:28;;;;;;;7.63;6.95;;;;;;;;;;5061264;28;20235;-88
2021/10/09 13:03:54;;;;;;;6.57;5.97;;;;;;;;;;5052190;28;20189;-89
2021/10/09 13:06:19;;;;;;;10.57;7.40;;;;;;;;;;5056676;28;20269;-89
2021/10/09 13:08:46;;;;;;;9.00;6.83;;;;;;;;;;5071529;28;20870;-88
2021/10/09 13:11:12;;;;;;;7.57;6.88;;;;;;;;;;5058912;28;20474;-90
2021/10/09 13:13:39;;;;;;;9.95;7.60;;;;;;;;;;5058182;28;20183;-87
2021/10/09 13:16:06;;;;;;;10.13;7.80;;;;;;;;;;5055179;28;20662;-87
2021/10/09 13:18:32;;;;;;;11.07;7.20;;;;;;;;;;5055724;28;20267;-90
2021/10/09 13:20:58;;;;;;;8.57;7.75;;;;;;;;;;5059167;28;20292;-89
2021/10/09 13:23:27;;;;;;;7.40;6.70;;;;;;;;;;5060320;28;20189;-87
2021/10/09 13:25:53;;;;;;;8.80;7.38;;;;;;;;;;5060229;28;20665;-89
2021/10/09 13:28:19;;;;;;;7.50;6.80;;;;;;;;;;5058906;28;20208;-89
2021/10/09 13:30:45;;;;;;;10.63;7.45;;;;;;;;;;5054349;28;20490;-90
2021/10/09 13:33:11;;;;;;;11.97;8.07;;;;;;;;;;5055872;28;20182;-89
2021/10/09 13:35:37;;;;;;;8.77;7.63;;;;;;;;;;5073042;28;20435;-89
2021/10/09 13:38:03;;;;;;;10.18;7.72;;;;;;;;;;5055051;28;20432;-88
2021/10/09 13:40:29;;;;;;;8.07;7.30;;;;;;;;;;5056791;28;20180;-89
2021/10/09 13:42:55;;;;;;;8.73;6.88;;;;;;;;;;5058547;28;20181;-85
2021/10/09 13:45:21;;;;;;;10.10;7.30;;;;;;;;;;5055922;28;20193;-87
2021/10/09 13:47:47;;;;;;;9.77;6.70;;;;;;;;;;5071741;28;20542;-88
2021/10/09 13:50:13;;;;;;;8.13;7.32;;;;;;;;;;5054249;28;20200;-88
2021/10/09 13:52:40;;;;;;;7.70;6.67;;;;;;;;;;5062064;28;20165;-90
2021/10/09 13:55:06;;;;;;;7.47;6.67;;;;;;;;;;5055229;28;20457;-89
2021/10/09 13:57:32;;;;;;;7.87;7.07;;;;;;;;;;5051233;28;20440;-90
2021/10/09 13:59:58;;;;;;;8.97;6.50;;;;;;;;;;5058573;28;20435;-90
2021/10/09 14:02:24;;;;;;;9.40;6.20;;;;;;;;;;5059991;28;20452;-89
2021/10/09 14:04:51;;;;;;;7.03;6.40;;;;;;;;;;5057884;28;20408;-90
2021/10/09 14:07:17;;;;;;;7.43;6.30;;;;;;;;;;5061461;28;20565;-89
2021/10/09 14:09:43;;;;;;;7.10;6.50;;;;;;;;;;5054843;28;20498;-90
2021/10/09 14:12:10;;;;;;;7.33;6.73;;;;;;;;;;5055689;28;20435;-88
2021/10/09 14:14:37;;;;;;;7.40;6.80;;;;;;;;;;5073761;28;20436;-90
2021/10/09 14:17:03;;;;;;;7.90;7.20;;;;;;;;;;5054883;28;20431;-88
2021/10/09 14:19:29;;;;;;;7.50;6.80;;;;;;;;;;5060883;28;20419;-90
2021/10/09 14:21:56;;;;;;;7.13;6.47;;;;;;;;;;5061410;28;20482;-90
2021/10/09 14:24:22;;;;;;;7.57;6.87;;;;;;;;;;5057091;28;20444;-88
2021/10/09 14:26:48;;;;;;;7.07;6.43;;;;;;;;;;5061725;28;20489;-90
2021/10/09 14:29:14;;;;;;;7.00;6.20;;;;;;;;;;5055260;28;20477;-90
2021/10/09 14:31:40;;;;;;;8.63;6.53;;;;;;;;;;5061961;28;20498;-91
2021/10/09 14:34:06;;;;;;;7.30;6.77;;;;;;;;;;5053796;28;20461;-89
2021/10/09 14:36:32;;;;;;;8.47;7.77;;;;;;;;;;5054161;28;20466;-86
2021/10/09 14:38:59;;;;;;;7.43;6.73;;;;;;;;;;5057234;28;20444;-86
2021/10/09 14:41:25;;;;;;;10.87;8.00;;;;;;;;;;5056079;28;20444;-90
2021/10/09 14:43:51;;;;;;;7.50;6.80;;;;;;;;;;5059383;28;20494;-90
2021/10/09 14:48:53;;;;;;;7.80;6.70;;;;;;;;;;5057302;28;20450;-88
2021/10/09 14:51:36;;;;;;;7.13;6.53;;;;;;;;;;5059358;28;20434;-90
2021/10/09 15:02:35;;;;;;;8.25;7.55;;;;;;;;;;5058246;28;20421;-87
2021/10/09 15:16:23;;;;;;;8.73;7.30;;;;;;;;;;5058173;28;20209;-85
2021/10/09 15:18:49;;;;;;;7.95;6.80;;;;;;;;;;5056352;28;20194;-84
2021/10/09 15:21:15;;;;;;;8.00;7.20;;;;;;;;;;5058200;28;20189;-87
2021/10/09 15:23:41;;;;;;;8.55;7.50;;;;;;;;;;5069591;28;20463;-88
2021/10/09 15:26:07;;;;;;;7.03;6.33;;;;;;;;;;5062051;28;20306;-87
2021/10/09 15:28:33;;;;;;;9.00;6.55;;;;;;;;;;5063873;28;20542;-89
2021/10/09 15:31:00;;;;;;;7.53;6.70;;;;;;;;;;5056671;28;20185;-92
2021/10/09 15:33:26;;;;;;;8.65;6.63;;;;;;;;;;5056078;28;20437;-91
2021/10/09 15:35:52;;;;;;;9.35;6.47;;;;;;;;;;5074972;28;20236;-91
2021/10/09 15:38:18;;;;;;;6.80;6.20;;;;;;;;;;5057313;28;20268;-89
2021/10/09 15:40:44;;;;;;;9.02;6.88;;;;;;;;;;5059882;28;20431;-88
2021/10/09 15:43:10;;;;;;;8.05;6.75;;;;;;;;;;5060223;28;20251;-91
2021/10/09 15:45:37;;;;;;;9.10;6.13;;;;;;;;;;5058459;28;20186;-91
2021/10/09 15:48:03;;;;;;;9.10;7.53;;;;;;;;;;5059387;28;20467;-90
2021/10/09 15:50:29;;;;;;;7.00;6.28;;;;;;;;;;5074373;28;20184;-90
2021/10/09 15:52:55;;;;;;;8.60;6.50;;;;;;;;;;5059502;28;20169;-91
2021/10/09 15:55:22;;;;;;;8.03;7.20;;;;;;;;;;5059579;28;20904;-91
2021/10/09 15:57:48;;;;;;;7.47;6.80;;;;;;;;;;5056162;28;20459;-90
2021/10/09 16:00:14;;;;;;;7.18;6.38;;;;;;;;;;5057879;28;20201;-90
2021/10/09 16:02:40;;;;;;;7.68;6.38;;;;;;;;;;5074822;28;20235;-90
2021/10/09 16:05:07;;;;;;;7.70;6.75;;;;;;;;;;5057022;28;20759;-89
2021/10/09 16:07:34;;;;;;;7.70;6.70;;;;;;;;;;5063328;28;20177;-90
2021/10/09 16:10:04;;;;;;;7.30;6.53;;;;;;;;;;5057457;28;20177;-90
2021/10/09 16:12:30;;;;;;;9.48;6.30;;;;;;;;;;5055158;28;20216;-91
2021/10/09 16:14:56;;;;;;;9.80;7.40;;;;;;;;;;5059252;28;20181;-91
2021/10/09 16:17:30;;;;;;;8.70;6.60;;;;;;;;;;5071808;28;20647;-92
2021/10/09 16:19:56;;;;;;;8.60;6.20;;;;;;;;;;5071980;28;20194;-91
2021/10/09 16:22:23;;;;;;;9.45;6.50;;;;;;;;;;5064130;28;20195;-91
2021/10/09 16:24:49;;;;;;;7.15;6.10;;;;;;;;;;5058912;28;20216;-90
2021/10/09 16:27:16;;;;;;;7.70;5.85;;;;;;;;;;5061245;28;20344;-90
2021/10/09 16:29:42;;;;;;;8.50;7.15;;;;;;;;;;5060161;28;20223;-90
2021/10/09 16:32:08;;;;;;;7.78;6.97;;;;;;;;;;5075637;28;20197;-91
2021/10/09 16:34:34;;;;;;;12.73;8.48;;;;;;;;;;5072347;28;20178;-91
2021/10/09 16:37:00;;;;;;;8.98;6.93;;;;;;;;;;5058061;28;20177;-92
2021/10/09 16:39:27;;;;;;;7.97;7.28;;;;;;;;;;5059826;28;20188;-92
2021/10/09 16:41:54;;;;;;;9.07;6.57;;;;;;;;;;5074096;28;20589;-91
2021/10/09 16:44:21;;;;;;;7.70;7.00;;;;;;;;;;5058424;28;20217;-90
2021/10/09 16:46:48;;;;;;;9.40;7.63;;;;;;;;;;5062779;28;20427;-90
2021/10/09 16:49:16;;;;;;;11.55;7.75;;;;;;;;;;5055156;28;20285;-90
2021/10/09 16:51:42;;;;;;;10.48;8.07;;;;;;;;;;5058506;28;20267;-91
2021/10/09 16:54:08;;;;;;;10.23;7.63;;;;;;;;;;5058520;28;20192;-90
2021/10/09 16:56:36;;;;;;;11.50;8.20;;;;;;;;;;5059926;28;20185;-90
2021/10/09 16:59:02;;;;;;;8.90;8.00;;;;;;;;;;5060640;28;20176;-89
2021/10/09 17:01:28;;;;;;;9.00;8.10;;;;;;;;;;5071678;28;20626;-90
2021/10/09 17:03:54;;;;;;;11.55;8.82;;;;;;;;;;5075346;28;20219;-90
2021/10/09 17:06:20;;;;;;;11.10;8.60;;;;;;;;;;5058296;28;20188;-90
2021/10/09 17:08:46;;;;;;;9.73;8.32;;;;;;;;;;5058357;28;20473;-89
2021/10/09 17:11:12;;;;;;;9.80;8.80;;;;;;;;;;5055873;28;20193;-90
2021/10/09 17:13:38;;;;;;;8.90;7.97;;;;;;;;;;5057347;28;20200;-89
2021/10/09 17:16:05;;;;;;;9.68;8.68;;;;;;;;;;5069243;28;20262;-89
2021/10/09 17:18:32;;;;;;;11.82;9.50;;;;;;;;;;5059501;28;20190;-90
2021/10/09 17:20:59;;;;;;;11.57;10.45;;;;;;;;;;5058567;28;20185;-89
2021/10/09 17:23:25;;;;;;;14.52;13.02;;;;;;;;;;5059767;28;20181;-91